Time;durP1;ratioP1;P1;durP2;ratioP2;P2;SDS_P1;SDS_P2;PMS_P1;PMS_P2;Temp;Humidity;BMP_temperature;BMP_pressure;BME280_temperature;BME280_humidity;BME280_pressure;Samples;Min_cycle;Max_cycle;Signal;HPM_P1;HPM_P2
2021/09/22 00:05:14;;;;;;;17.90;15.07;;;9.10;66.50;;;;;;4863714;29;20493;-93
2021/09/22 00:11:02;;;;;;;19.30;16.27;;;9.10;66.40;;;;;;4863657;29;20153;-95
2021/09/22 00:16:51;;;;;;;19.13;15.93;;;9.10;66.40;;;;;;4864038;29;20084;-95
2021/09/22 00:22:41;;;;;;;20.85;16.33;;;9.00;66.50;;;;;;4862918;29;20074;-95
2021/09/22 00:28:29;;;;;;;20.75;16.80;;;8.90;66.70;;;;;;4863161;29;20072;-94
2021/09/22 00:34:18;;;;;;;21.13;16.42;;;8.90;67.10;;;;;;4863091;29;20049;-95
2021/09/22 00:40:08;;;;;;;22.45;17.40;;;8.90;67.20;;;;;;4862787;29;20036;-95
2021/09/22 00:46:04;;;;;;;20.83;16.95;;;8.80;67.10;;;;;;4865648;29;20033;-94
2021/09/22 00:55:51;;;;;;;22.23;17.80;;;8.70;67.40;;;;;;4862932;29;20109;-94
2021/09/22 01:01:40;;;;;;;24.17;18.08;;;8.60;67.50;;;;;;4862636;29;20028;-94
2021/09/22 01:07:30;;;;;;;23.52;18.05;;;8.60;67.80;;;;;;4862631;29;20393;-95
2021/09/22 01:13:19;;;;;;;24.27;18.75;;;8.50;67.80;;;;;;4862652;29;20082;-93
2021/09/22 01:19:09;;;;;;;22.92;17.70;;;8.50;68.30;;;;;;4862562;29;20040;-96
2021/09/22 01:24:58;;;;;;;22.17;17.38;;;8.40;68.30;;;;;;4862460;29;20051;-93
2021/09/22 01:30:48;;;;;;;22.92;17.95;;;8.40;68.50;;;;;;4862320;29;20105;-92
2021/09/22 01:36:37;;;;;;;24.10;17.58;;;8.40;68.50;;;;;;4862356;29;20077;-92
2021/09/22 01:42:27;;;;;;;24.75;18.85;;;8.30;68.60;;;;;;4862472;29;20068;-93
2021/09/22 01:48:15;;;;;;;27.02;19.27;;;8.20;68.60;;;;;;4861983;29;20059;-93
2021/09/22 01:58:04;;;;;;;29.85;19.63;;;8.10;68.70;;;;;;4863002;29;20033;-95
2021/09/22 02:03:53;;;;;;;26.92;19.65;;;8.00;68.90;;;;;;4863323;29;20077;-95
2021/09/22 02:09:43;;;;;;;27.15;19.50;;;8.00;69.20;;;;;;4862942;29;20086;-95
2021/09/22 02:15:33;;;;;;;27.35;19.73;;;7.90;69.10;;;;;;4866485;29;20068;-95
2021/09/22 02:21:21;;;;;;;24.65;17.60;;;7.80;69.10;;;;;;4877622;29;20044;-93
2021/09/22 02:27:12;;;;;;;24.15;17.67;;;7.70;69.40;;;;;;4868036;29;20032;-96
2021/09/22 02:33:02;;;;;;;24.75;18.13;;;7.70;69.60;;;;;;4865741;29;20081;-94
2021/09/22 02:38:50;;;;;;;26.48;19.42;;;7.70;69.70;;;;;;4865412;29;20509;-94
2021/09/22 02:44:40;;;;;;;23.73;17.75;;;7.60;69.70;;;;;;4865360;29;20056;-94
2021/09/22 02:50:29;;;;;;;23.45;17.25;;;7.60;69.90;;;;;;4864796;29;20044;-94
2021/09/22 03:00:13;;;;;;;24.95;18.65;;;7.50;70.00;;;;;;4864187;29;20078;-91
2021/09/22 03:06:02;;;;;;;24.77;18.63;;;7.50;70.20;;;;;;4864254;29;20069;-95
2021/09/22 03:11:52;;;;;;;24.35;18.38;;;7.50;70.30;;;;;;4864205;29;20073;-95
2021/09/22 03:17:40;;;;;;;25.60;19.08;;;7.40;70.40;;;;;;4864162;29;20489;-94
2021/09/22 03:23:30;;;;;;;26.10;19.42;;;7.40;70.50;;;;;;4864406;29;20040;-93
2021/09/22 03:29:18;;;;;;;32.70;22.20;;;7.40;70.50;;;;;;4864082;29;20089;-93
2021/09/22 03:35:08;;;;;;;27.77;21.02;;;7.30;70.40;;;;;;4864000;29;20386;-93
2021/09/22 03:40:56;;;;;;;30.38;22.17;;;7.20;70.80;;;;;;4863827;29;20029;-92
2021/09/22 03:46:45;;;;;;;29.00;22.10;;;7.20;70.80;;;;;;4863650;29;20031;-92
2021/09/22 03:52:33;;;;;;;32.83;24.95;;;7.20;71.30;;;;;;4863616;29;20402;-91
2021/09/22 04:02:41;;;;;;;25.83;19.13;;;7.40;72.00;;;;;;4863471;29;20196;-94
2021/09/22 04:08:29;;;;;;;23.63;19.38;;;7.50;72.20;;;;;;4863507;29;20028;-92
2021/09/22 04:14:18;;;;;;;23.05;18.80;;;7.70;72.60;;;;;;4863174;29;20413;-92
2021/09/22 04:20:12;;;;;;;23.08;18.17;;;7.90;72.80;;;;;;4862958;29;20145;-92
2021/09/22 04:26:01;;;;;;;20.52;17.02;;;8.00;72.40;;;;;;4863653;29;20036;-93
2021/09/22 04:31:50;;;;;;;20.77;16.23;;;8.10;72.10;;;;;;4862791;29;20517;-93
2021/09/22 04:37:40;;;;;;;20.77;16.55;;;8.10;72.50;;;;;;4862566;29;20064;-93
2021/09/22 04:43:30;;;;;;;20.15;16.55;;;8.20;72.70;;;;;;4862511;29;20121;-92
2021/09/22 04:49:44;;;;;;;20.35;16.17;;;8.30;72.60;;;;;;4862750;29;20037;-92
2021/09/22 04:55:35;;;;;;;19.45;15.10;;;8.30;72.30;;;;;;4862413;29;20041;-92
2021/09/22 05:05:25;;;;;;;19.45;14.95;;;8.40;72.70;;;;;;4862430;29;20040;-93
2021/09/22 05:11:16;;;;;;;18.25;15.05;;;8.60;73.10;;;;;;4862209;29;20545;-92
2021/09/22 05:17:07;;;;;;;19.10;16.40;;;8.70;73.20;;;;;;4861993;29;20036;-90
2021/09/22 05:22:56;;;;;;;19.08;14.52;;;8.90;73.30;;;;;;4861444;29;20398;-86
2021/09/22 05:28:45;;;;;;;17.98;14.63;;;9.10;73.30;;;;;;4862042;29;20033;-91
2021/09/22 05:34:34;;;;;;;19.50;13.85;;;9.30;73.40;;;;;;4861943;29;20082;-92
2021/09/22 05:40:24;;;;;;;18.35;13.25;;;9.40;73.20;;;;;;4862327;29;20044;-92
2021/09/22 05:46:14;;;;;;;16.33;12.70;;;9.60;73.20;;;;;;4862194;29;20040;-86
2021/09/22 05:52:03;;;;;;;17.10;12.57;;;9.70;72.90;;;;;;4865472;29;20057;-86
2021/09/22 05:57:52;;;;;;;15.93;12.05;;;9.80;72.80;;;;;;4865033;29;20049;-84
2021/09/22 06:08:07;;;;;;;16.25;11.52;;;10.00;72.70;;;;;;4860501;29;20108;-83
2021/09/22 06:14:01;;;;;;;19.17;12.68;;;10.20;72.70;;;;;;4846226;29;20037;-84
2021/09/22 06:19:50;;;;;;;15.45;12.10;;;10.40;72.70;;;;;;4846049;29;20390;-84
2021/09/22 06:25:39;;;;;;;16.95;12.65;;;10.60;72.60;;;;;;4846084;29;20535;-82
2021/09/22 06:43:23;;;;;;;17.10;12.07;;;11.20;72.40;;;;;;4884088;29;20386;-83
2021/09/22 06:49:18;;;;;;;17.50;11.50;;;11.40;72.10;;;;;;4941107;24;20031;-84
2021/09/22 06:55:07;;;;;;;15.02;10.95;;;11.70;71.80;;;;;;4846487;29;20057;-81
2021/09/22 08:30:29;;;;;;;11.02;7.40;;;17.50;66.20;;;;;;4924368;24;20045;-88
2021/09/22 08:36:48;;;;;;;;;;;;;;;;;;;;;
2021/09/22 09:55:46;;;;;;;11.25;6.13;;;22.30;58.00;;;;;;4863764;29;20402;-91
2021/09/22 12:25:56;;;;;;;;;;;;;;;;;;;;;
2021/09/22 13:26:25;;;;;;;5.57;2.17;;;31.70;34.50;;;;;;5138731;24;20105;-92
2021/09/22 13:53:37;;;;;;;5.43;2.20;;;32.80;34.80;;;;;;4874571;24;20325;-84
2021/09/22 13:59:29;;;;;;;6.18;2.10;;;34.80;33.80;;;;;;4842512;29;20491;-81
2021/09/22 14:33:45;;;;;;;5.95;2.25;;;28.70;31.20;;;;;;4853320;29;20053;-96
2021/09/22 15:40:25;;;;;;;3.42;1.85;;;30.30;29.80;;;;;;4871338;29;20037;-91
2021/09/22 16:15:19;;;;;;;4.40;2.00;;;26.40;32.60;;;;;;5436762;23;20109;-92
2021/09/22 16:21:12;;;;;;;5.10;1.98;;;25.90;32.40;;;;;;4886993;29;20091;-93
2021/09/22 16:47:19;;;;;;;5.13;2.35;;;24.10;34.70;;;;;;4847259;29;20139;-89
2021/09/22 17:17:17;;;;;;;5.50;2.40;;;21.10;37.80;;;;;;4874190;29;20066;-95
2021/09/22 17:23:19;;;;;;;9.73;3.50;;;20.60;38.20;;;;;;4874438;29;20052;-93
2021/09/22 17:29:09;;;;;;;8.75;3.67;;;20.10;38.90;;;;;;4870729;29;20390;-93
2021/09/22 17:35:00;;;;;;;9.48;4.10;;;19.70;39.50;;;;;;4868881;29;20036;-92
2021/09/22 17:40:51;;;;;;;8.98;3.67;;;19.40;40.10;;;;;;4875998;29;20040;-96
2021/09/22 17:46:47;;;;;;;8.88;3.65;;;19.10;40.80;;;;;;4875518;29;20040;-91
2021/09/22 17:52:40;;;;;;;11.05;4.63;;;18.80;41.30;;;;;;4874583;29;20554;-94
2021/09/22 17:58:30;;;;;;;8.13;3.72;;;18.40;41.80;;;;;;4881595;29;20037;-93
2021/09/22 18:04:19;;;;;;;7.68;3.58;;;18.10;42.60;;;;;;4882194;29;20045;-95
2021/09/22 18:10:15;;;;;;;15.88;5.20;;;17.80;43.20;;;;;;4881803;29;20097;-92
2021/09/22 18:19:56;;;;;;;10.00;4.75;;;17.40;44.40;;;;;;4877861;29;20061;-92
2021/09/22 18:25:48;;;;;;;8.50;4.20;;;17.10;44.80;;;;;;4879880;29;20485;-91
2021/09/22 18:31:36;;;;;;;10.23;5.15;;;16.80;45.80;;;;;;4877896;29;20071;-91
2021/09/22 18:37:26;;;;;;;13.23;6.03;;;16.50;46.60;;;;;;4877618;29;20052;-92
2021/09/22 18:43:15;;;;;;;16.00;6.68;;;16.30;47.30;;;;;;4878386;29;20394;-92
2021/09/22 18:49:04;;;;;;;12.55;5.72;;;16.10;48.10;;;;;;4875524;29;20033;-92
2021/09/22 18:54:57;;;;;;;11.32;4.75;;;15.90;48.60;;;;;;4875792;29;20053;-92
2021/09/22 19:00:46;;;;;;;13.10;5.85;;;15.70;49.10;;;;;;4876051;29;20113;-92
2021/09/22 19:06:36;;;;;;;12.40;5.78;;;15.50;49.80;;;;;;4872708;29;20040;-92
2021/09/22 19:12:27;;;;;;;12.18;5.30;;;15.20;50.60;;;;;;4876479;29;20056;-94
2021/09/22 19:22:14;;;;;;;12.75;6.00;;;15.00;51.30;;;;;;4879521;29;20090;-90
2021/09/22 19:28:07;;;;;;;11.23;5.72;;;14.80;51.80;;;;;;4878030;29;20062;-91
2021/09/22 19:33:56;;;;;;;12.75;5.82;;;14.60;52.50;;;;;;4876532;29;20113;-91
2021/09/22 19:39:47;;;;;;;10.82;5.90;;;14.40;53.10;;;;;;4870490;29;20438;-90
2021/09/22 19:45:36;;;;;;;12.88;6.45;;;14.20;53.60;;;;;;4870126;29;20109;-92
2021/09/22 19:51:25;;;;;;;12.38;6.55;;;14.10;54.10;;;;;;4872717;29;20068;-89
2021/09/22 19:57:14;;;;;;;12.60;6.80;;;13.90;54.70;;;;;;4871607;29;20044;-89
2021/09/22 20:03:04;;;;;;;14.98;7.15;;;13.70;55.10;;;;;;4872651;29;20079;-95
2021/09/22 20:08:52;;;;;;;11.88;7.40;;;13.50;55.60;;;;;;4873661;29;20041;-95
2021/09/22 20:14:40;;;;;;;14.07;7.38;;;13.40;56.20;;;;;;4869403;29;20085;-92
2021/09/22 20:24:27;;;;;;;12.88;7.80;;;13.20;56.70;;;;;;4879109;29;20043;-95
2021/09/22 20:30:23;;;;;;;14.35;6.57;;;13.00;57.30;;;;;;4881693;29;20037;-96
2021/09/22 20:36:32;;;;;;;12.77;6.90;;;12.80;57.60;;;;;;4865739;29;20102;-91
2021/09/22 20:42:21;;;;;;;11.48;6.68;;;12.70;58.10;;;;;;4886499;29;20020;-90
2021/09/22 20:48:09;;;;;;;13.07;6.82;;;12.60;58.40;;;;;;4865202;29;20442;-93
2021/09/22 20:53:58;;;;;;;11.35;6.22;;;12.50;58.80;;;;;;4867091;29;20032;-92
2021/09/22 20:59:47;;;;;;;9.85;5.75;;;12.40;59.20;;;;;;4866348;29;20109;-92
2021/09/22 21:05:39;;;;;;;11.45;6.43;;;12.20;59.60;;;;;;4863978;29;20043;-92
2021/09/22 21:11:31;;;;;;;11.73;6.38;;;12.20;60.00;;;;;;4864307;29;20529;-92
2021/09/22 21:17:20;;;;;;;13.05;6.45;;;12.00;60.20;;;;;;4862169;29;20028;-92
2021/09/22 21:27:11;;;;;;;14.10;6.53;;;11.80;60.60;;;;;;4862493;29;20413;-92
2021/09/22 21:33:00;;;;;;;11.20;6.47;;;11.70;61.20;;;;;;4862522;29;20464;-92
2021/09/22 21:38:49;;;;;;;12.73;7.22;;;11.60;61.50;;;;;;4862258;29;20033;-93
2021/09/22 21:44:37;;;;;;;13.50;7.07;;;11.50;61.90;;;;;;4862630;29;20423;-95
2021/09/22 21:50:27;;;;;;;12.10;7.05;;;11.40;62.30;;;;;;4862768;29;20073;-94
2021/09/22 21:56:21;;;;;;;10.98;7.50;;;11.30;62.50;;;;;;4862103;29;20074;-93
2021/09/22 22:02:10;;;;;;;12.25;7.55;;;11.20;62.80;;;;;;4862207;29;20056;-93
2021/09/22 22:08:00;;;;;;;11.48;7.45;;;11.10;63.40;;;;;;4862140;29;20060;-93
2021/09/22 22:13:48;;;;;;;17.98;10.32;;;11.00;63.60;;;;;;4861620;29;20065;-94
2021/09/22 22:19:37;;;;;;;13.35;8.38;;;11.00;64.00;;;;;;4861573;29;20091;-93
2021/09/22 22:29:28;;;;;;;14.60;9.00;;;10.80;64.20;;;;;;4861849;29;20525;-93
2021/09/22 22:35:18;;;;;;;13.90;8.90;;;10.70;64.40;;;;;;4864814;29;20394;-92
2021/09/22 22:41:08;;;;;;;13.90;8.75;;;10.70;64.90;;;;;;4864817;29;20086;-92
2021/09/22 22:46:56;;;;;;;12.88;8.63;;;10.60;65.00;;;;;;4865438;29;20044;-94
2021/09/22 22:52:45;;;;;;;14.85;10.65;;;10.50;65.30;;;;;;4864887;29;20099;-94
2021/09/22 22:58:35;;;;;;;14.30;9.25;;;10.40;65.50;;;;;;4865105;29;20109;-94
2021/09/22 23:04:24;;;;;;;15.07;9.27;;;10.40;65.70;;;;;;4864874;29;20044;-93
2021/09/22 23:10:13;;;;;;;14.43;9.68;;;10.30;66.00;;;;;;4864555;29;20386;-93
2021/09/22 23:16:05;;;;;;;14.35;9.45;;;10.20;66.20;;;;;;4864404;29;20041;-93
2021/09/22 23:32:03;;;;;;;15.82;11.13;;;10.00;66.50;;;;;;4864385;29;20078;-94
2021/09/22 23:37:51;;;;;;;16.00;11.23;;;9.90;66.80;;;;;;4864229;29;20377;-92
2021/09/22 23:43:40;;;;;;;13.80;9.90;;;9.80;67.10;;;;;;4864273;29;20041;-92
2021/09/22 23:49:29;;;;;;;16.05;8.77;;;9.80;67.50;;;;;;4863790;29;20064;-92
2021/09/22 23:55:20;;;;;;;15.05;10.32;;;9.70;67.50;;;;;;4863540;29;20029;-91
